Terminal Aerodrome Forecast
Issued by NWS

Home | Current Version | Previous Version | Text Only | Print | Product List | Glossary On
Versions: 1 2 3 4 5 6 7 8 9 10 11 12 13 14 15 16 17 18 19 20 21
912
FTUS43 KGRB 250520
TAFCWA
TAF
KCWA 250520Z 2506/2606 13008KT P6SM BKN012 OVC020
     FM250800 14009KT 5SM BR BKN006 OVC012
      TEMPO 2511/2515 3SM SHRA OVC003
     FM251500 16011G18KT 3SM SHRA BR BKN006 OVC012 PROB30 2515/2519
      1SM TSRA BR BKN003 OVC015CB
     FM252000 19010G17KT 4SM BR VCSH SCT007 OVC015
     FM252300 25010G17KT P6SM SCT015 OVC035
      TEMPO 2604/2606 BKN015
      AMD LTD TO CLD VIS AND WIND TIL 251100=

USA.gov is the U.S. government's official web portal to all federal, state and local government web resources and services.